Time;durP1;ratioP1;P1;durP2;ratioP2;P2;SDS_P1;SDS_P2;PMS_P1;PMS_P2;Temp;Humidity;BMP_temperature;BMP_pressure;BME280_temperature;BME280_humidity;BME280_pressure;Samples;Min_cycle;Max_cycle;Signal;HPM_P1;HPM_P2
2021/01/25 00:01:13;;;;;;;25.30;8.13;;;;;;;8.50;89.25;100499.47;1746570;81;21871;-78
2021/01/25 00:03:47;;;;;;;25.40;7.15;;;;;;;8.57;89.29;100493.22;1737900;81;21207;-78
2021/01/25 00:06:20;;;;;;;19.05;5.50;;;;;;;8.68;89.25;100499.20;1754020;81;21455;-78
2021/01/25 00:08:54;;;;;;;25.40;6.92;;;;;;;8.69;89.01;100497.30;1748915;81;21341;-77
2021/01/25 00:11:27;;;;;;;20.00;6.28;;;;;;;8.69;88.89;100505.03;1747002;81;22144;-76
2021/01/25 00:14:00;;;;;;;19.52;6.40;;;;;;;8.69;88.90;100500.88;1734779;81;21205;-78
2021/01/25 00:16:33;;;;;;;20.05;5.53;;;;;;;8.70;88.89;100502.55;1754903;81;21844;-77
2021/01/25 00:19:05;;;;;;;19.50;5.03;;;;;;;8.69;88.84;100508.36;1742606;81;21340;-77
2021/01/25 00:21:38;;;;;;;20.15;5.30;;;;;;;8.66;88.89;100516.62;1736551;81;21639;-78
2021/01/25 00:24:12;;;;;;;19.07;5.40;;;;;;;8.65;89.01;100513.56;1743235;81;21326;-78
2021/01/25 00:26:45;;;;;;;33.85;6.12;;;;;;;8.65;89.06;100499.73;1738052;81;21332;-76
2021/01/25 00:29:18;;;;;;;25.60;7.45;;;;;;;8.63;89.07;100507.98;1746469;81;21364;-76
2021/01/25 00:31:51;;;;;;;;;;;;;;;8.63;89.16;100503.84;1749141;81;21321;-78
2021/01/25 00:34:24;;;;;;;22.70;5.22;;;;;;;8.69;89.32;100502.83;1741305;81;20522;-77
2021/01/25 00:36:57;;;;;;;21.45;5.12;;;;;;;8.73;89.33;100497.91;1744563;81;21329;-76
2021/01/25 00:39:29;;;;;;;29.92;6.97;;;;;;;8.87;89.45;100492.87;1752291;81;21714;-76
2021/01/25 00:42:02;;;;;;;22.65;6.62;;;;;;;8.97;89.37;100495.23;1741909;81;21186;-77
2021/01/25 00:44:35;;;;;;;19.23;5.20;;;;;;;9.02;88.89;100499.45;1738840;81;21324;-78
2021/01/25 00:47:07;;;;;;;19.73;4.73;;;;;;;9.05;88.57;100492.01;1745280;81;21231;-79
2021/01/25 00:49:40;;;;;;;20.70;5.47;;;;;;;9.08;88.21;100487.36;1752548;81;21647;-77
2021/01/25 00:52:13;;;;;;;20.85;5.60;;;;;;;9.15;88.14;100488.54;1749540;81;21195;-76
2021/01/25 00:54:46;;;;;;;23.42;5.87;;;;;;;9.18;87.67;100483.89;1742341;81;21379;-76
2021/01/25 00:57:18;;;;;;;18.20;6.03;;;;;;;9.17;87.27;100494.68;1751740;81;21256;-77
2021/01/25 00:59:51;;;;;;;17.48;5.70;;;;;;;9.09;86.65;100486.80;1747778;81;21218;-78
2021/01/25 01:02:24;;;;;;;24.50;6.50;;;;;;;9.04;86.59;100490.34;1748689;81;21436;-77
2021/01/25 01:04:56;;;;;;;27.90;7.03;;;;;;;9.03;86.40;100489.20;1738803;81;21293;-76
2021/01/25 01:07:29;;;;;;;13.58;5.20;;;;;;;9.00;86.25;100483.63;1746037;81;21217;-77
2021/01/25 01:10:02;;;;;;;25.10;6.28;;;;;;;8.95;86.03;100479.96;1752340;81;21194;-77
2021/01/25 01:12:35;;;;;;;;;;;;;;;8.81;86.18;100469.79;1747793;81;21424;-79
2021/01/25 01:15:11;;;;;;;13.32;4.22;;;;;;;8.76;86.63;100460.02;1744530;81;20295;-78
2021/01/25 01:17:59;;;;;;;;;;;;;;;;;;;;;
2021/01/25 01:20:22;;;;;;;21.77;4.90;;;;;;;8.68;87.76;100456.31;1738600;81;22342;-77
2021/01/25 01:22:55;;;;;;;23.52;5.10;;;;;;;8.70;87.81;100449.97;1748987;81;21252;-78
2021/01/25 01:25:27;;;;;;;23.10;5.80;;;;;;;8.69;87.94;100451.06;1751427;81;21242;-78
2021/01/25 01:28:00;;;;;;;23.22;5.08;;;;;;;8.76;88.22;100453.10;1766182;81;21391;-77
2021/01/25 01:30:33;;;;;;;26.13;6.07;;;;;;;8.82;88.67;100448.50;1745045;81;21336;-77
2021/01/25 01:33:06;;;;;;;22.75;5.92;;;;;;;8.82;88.67;100448.50;1746579;81;21699;-78
2021/01/25 01:35:39;;;;;;;27.37;6.33;;;;;;;8.90;88.72;100447.52;1754212;81;21294;-77
2021/01/25 01:38:11;;;;;;;20.20;4.17;;;;;;;8.94;88.78;100440.92;1744773;81;21324;-77
2021/01/25 01:40:44;;;;;;;24.55;4.47;;;;;;;8.93;88.65;100433.70;1740898;81;21700;-77
2021/01/25 01:43:17;;;;;;;28.90;5.72;;;;;;;8.91;88.66;100430.34;1748509;81;21203;-78
2021/01/25 01:45:50;;;;;;;23.70;4.83;;;;;;;8.94;88.77;100418.77;1750337;81;21198;-78
2021/01/25 01:48:23;;;;;;;27.32;6.08;;;;;;;8.99;88.71;100429.35;1754894;81;21215;-78
2021/01/25 01:50:57;;;;;;;24.02;4.65;;;;;;;8.99;88.55;100422.43;1759493;81;21396;-78
2021/01/25 01:53:29;;;;;;;;;;;;;;;9.02;88.55;100421.93;1720026;81;21299;-78
2021/01/25 01:56:01;;;;;;;26.00;5.40;;;;;;;9.04;88.55;100414.19;1747735;81;20294;-77
2021/01/25 01:58:34;;;;;;;26.93;4.65;;;;;;;9.03;88.32;100414.44;1748102;81;21187;-77
2021/01/25 02:01:06;;;;;;;22.07;5.25;;;;;;;9.06;88.22;100402.87;1746995;81;21214;-76
2021/01/25 02:03:39;;;;;;;20.37;4.08;;;;;;;9.07;88.01;100414.23;1756438;81;21282;-77
2021/01/25 02:06:12;;;;;;;24.23;5.30;;;;;;;9.06;87.95;100416.15;1743590;81;21233;-77
2021/01/25 02:08:45;;;;;;;18.00;4.08;;;;;;;9.08;87.88;100417.28;1745813;81;21194;-77
2021/01/25 02:11:18;;;;;;;21.52;4.15;;;;;;;9.13;87.84;100409.86;1748109;81;21845;-82
2021/01/25 02:13:52;;;;;;;19.07;4.62;;;;;;;9.12;87.41;100422.04;1743889;81;21229;-79
2021/01/25 02:16:25;;;;;;;19.52;5.35;;;;;;;9.13;87.23;100410.42;1738183;81;21347;-80
2021/01/25 02:18:58;;;;;;;33.92;4.83;;;;;;;9.19;87.23;100414.94;1746583;81;21246;-81
2021/01/25 02:21:31;;;;;;;20.68;3.67;;;;;;;9.16;86.92;100425.98;1744361;81;21727;-80
2021/01/25 02:24:10;;;;;;;18.23;3.62;;;;;;;9.14;86.96;100428.72;1743761;81;21399;-79
2021/01/25 02:27:26;;;;;;;15.58;3.00;;;;;;;9.09;86.93;100429.49;1748280;81;21351;-80
2021/01/25 02:30:00;;;;;;;25.77;4.03;;;;;;;9.04;87.16;100421.11;1745756;81;21328;-80
2021/01/25 02:32:34;;;;;;;22.67;3.85;;;;;;;9.03;87.48;100403.37;1753545;81;22118;-79
2021/01/25 02:35:10;;;;;;;24.57;3.58;;;;;;;9.02;87.61;100397.02;1738509;81;21234;-81
2021/01/25 02:37:43;;;;;;;18.12;4.10;;;;;;;9.02;87.67;100401.70;1737023;81;22124;-80
2021/01/25 02:40:16;;;;;;;21.57;4.17;;;;;;;9.05;87.69;100393.70;1747972;81;21841;-81
2021/01/25 02:42:54;;;;;;;18.00;3.95;;;;;;;9.06;87.82;100382.92;1747296;81;22731;-81
2021/01/25 02:45:26;;;;;;;21.30;3.55;;;;;;;9.08;87.99;100375.21;1746541;81;21363;-82
2021/01/25 02:47:59;;;;;;;24.45;4.00;;;;;;;9.12;88.11;100371.38;1753964;81;21388;-82
2021/01/25 02:50:32;;;;;;;14.87;2.60;;;;;;;9.17;88.25;100365.34;1749802;81;21697;-81
2021/01/25 02:53:05;;;;;;;18.05;3.20;;;;;;;9.20;88.28;100363.45;1747365;81;21773;-81
2021/01/25 02:55:37;;;;;;;21.97;4.33;;;;;;;9.20;88.35;100364.83;1740800;81;21195;-81
2021/01/25 02:58:10;;;;;;;24.25;3.98;;;;;;;9.23;88.42;100356.55;1749136;81;21718;-81
2021/01/25 03:00:43;;;;;;;22.10;4.17;;;;;;;9.26;88.44;100361.56;1749612;81;21345;-81
2021/01/25 03:03:15;;;;;;;20.57;3.75;;;;;;;9.30;88.47;100366.30;1747304;81;21365;-81
2021/01/25 03:05:48;;;;;;;20.60;3.80;;;;;;;9.32;88.45;100364.14;1749374;81;21183;-80
2021/01/25 03:08:21;;;;;;;24.00;3.65;;;;;;;9.37;88.33;100368.89;1752836;81;21487;-83
2021/01/25 03:10:55;;;;;;;17.40;4.10;;;;;;;9.37;88.24;100354.47;1746048;81;21488;-82
2021/01/25 03:13:28;;;;;;;17.25;4.05;;;;;;;9.40;88.24;100351.19;1742233;81;21321;-80
2021/01/25 03:16:01;;;;;;;;;;;;;;;9.42;88.10;100348.98;1738490;81;21469;-79
2021/01/25 03:18:33;;;;;;;22.27;4.25;;;;;;;9.42;88.12;100346.22;1746920;81;20229;-79
2021/01/25 03:21:06;;;;;;;27.05;5.17;;;;;;;9.42;88.19;100346.22;1743193;82;21237;-80
2021/01/25 03:23:39;;;;;;;23.50;3.60;;;;;;;9.47;88.04;100343.50;1752062;81;21193;-82
2021/01/25 03:26:11;;;;;;;28.35;4.30;;;;;;;9.50;87.83;100339.38;1742680;81;21300;-80
2021/01/25 03:28:45;;;;;;;21.37;5.20;;;;;;;9.51;87.76;100335.50;1739378;81;21328;-82
2021/01/25 03:31:18;;;;;;;15.63;3.42;;;;;;;9.48;87.62;100342.39;1747714;81;21400;-80
2021/01/25 03:33:52;;;;;;;13.88;3.25;;;;;;;9.48;87.59;100334.08;1747171;81;21426;-80
2021/01/25 03:36:25;;;;;;;22.80;3.98;;;;;;;9.47;87.48;100342.11;1756924;81;21332;-80
2021/01/25 03:39:01;;;;;;;17.27;3.70;;;;;;;9.45;87.48;100333.24;1758977;81;21458;-80
2021/01/25 03:41:33;;;;;;;21.68;4.10;;;;;;;9.43;87.43;100332.64;1743482;81;21344;-80
2021/01/25 03:44:06;;;;;;;21.15;3.95;;;;;;;9.40;87.47;100338.72;1737735;81;21253;-80
2021/01/25 03:46:40;;;;;;;23.22;4.42;;;;;;;9.38;87.55;100338.70;1741453;81;21810;-81
2021/01/25 03:49:14;;;;;;;22.15;4.58;;;;;;;9.36;87.68;100326.48;1748433;81;21203;-80
2021/01/25 03:51:47;;;;;;;21.50;3.52;;;;;;;9.39;87.74;100325.98;1747449;81;21221;-82
2021/01/25 03:54:19;;;;;;;28.45;5.25;;;;;;;9.41;87.69;100318.77;1747995;81;21471;-81
2021/01/25 03:56:52;;;;;;;25.27;5.17;;;;;;;9.39;87.64;100307.97;1749600;81;21211;-81
2021/01/25 03:59:25;;;;;;;26.87;5.65;;;;;;;9.37;87.62;100310.14;1741174;81;21349;-80
2021/01/25 04:01:58;;;;;;;19.73;4.53;;;;;;;9.35;87.86;100295.73;1732466;82;21206;-82
2021/01/25 04:04:31;;;;;;;16.67;4.00;;;;;;;9.35;88.04;100297.11;1732323;82;21649;-79
2021/01/25 04:07:03;;;;;;;19.25;4.53;;;;;;;9.36;88.27;100293.23;1735766;81;21332;-78
2021/01/25 04:09:36;;;;;;;25.73;4.83;;;;;;;9.42;88.42;100287.22;1731802;81;21336;-77
2021/01/25 04:12:09;;;;;;;23.70;4.90;;;;;;;9.46;88.38;100291.95;1740117;81;21198;-78
2021/01/25 04:14:42;;;;;;;27.17;4.65;;;;;;;9.50;88.47;100288.96;1729227;82;21337;-78
2021/01/25 04:17:15;;;;;;;24.82;4.75;;;;;;;9.55;88.55;100293.14;1729234;81;21253;-77
2021/01/25 04:19:47;;;;;;;29.60;6.00;;;;;;;9.61;88.42;100286.53;1738570;81;21210;-76
2021/01/25 04:22:20;;;;;;;24.10;5.92;;;;;;;9.66;88.17;100281.61;1732249;81;21197;-76
2021/01/25 04:24:53;;;;;;;28.60;6.00;;;;;;;9.65;87.89;100280.76;1734388;81;21334;-75
2021/01/25 04:27:25;;;;;;;24.57;5.10;;;;;;;9.65;87.83;100278.53;1742863;81;21738;-75
2021/01/25 04:29:58;;;;;;;37.60;5.92;;;;;;;9.65;87.74;100279.91;1733893;81;21321;-75
2021/01/25 04:32:35;;;;;;;33.25;5.35;;;;;;;9.66;87.79;100286.59;1744248;81;21388;-76
2021/01/25 04:35:11;;;;;;;23.47;6.08;;;;;;;9.71;87.92;100270.00;1735293;81;21334;-75
2021/01/25 04:37:44;;;;;;;28.70;6.00;;;;;;;9.77;88.01;100271.70;1731223;81;21340;-75
2021/01/25 04:40:16;;;;;;;40.20;5.30;;;;;;;9.86;88.14;100265.94;1745267;81;21753;-75
2021/01/25 04:42:49;;;;;;;28.60;4.47;;;;;;;9.93;88.10;100267.96;1739030;81;22153;-76
2021/01/25 04:45:22;;;;;;;23.22;5.60;;;;;;;10.00;88.08;100268.55;1735538;81;21913;-76
2021/01/25 04:47:57;;;;;;;31.45;5.03;;;;;;;10.07;88.15;100272.50;1743666;81;21348;-76
2021/01/25 04:50:30;;;;;;;37.83;7.37;;;;;;;10.14;88.03;100261.99;1739749;81;21416;-75
2021/01/25 04:53:03;;;;;;;22.80;5.90;;;;;;;10.18;87.92;100258.44;1744280;81;21338;-77
2021/01/25 04:55:36;;;;;;;22.58;6.00;;;;;;;10.24;87.79;100257.36;1731399;81;21368;-76
2021/01/25 04:58:08;;;;;;;26.27;4.97;;;;;;;10.28;87.75;100258.47;1723263;81;21345;-75
2021/01/25 05:00:42;;;;;;;22.48;6.47;;;;;;;10.32;87.64;100261.00;1735653;81;21316;-74
2021/01/25 05:03:14;;;;;;;22.40;5.80;;;;;;;10.35;87.60;100250.73;1751062;81;21245;-74
2021/01/25 05:05:47;;;;;;;20.65;7.12;;;;;;;10.41;87.62;100247.45;1740295;81;21824;-75
2021/01/25 05:08:20;;;;;;;25.15;6.35;;;;;;;10.45;87.47;100238.31;1729692;81;21340;-75
2021/01/25 05:10:53;;;;;;;21.97;5.62;;;;;;;10.46;87.32;100245.52;1750496;81;21721;-75
2021/01/25 05:13:26;;;;;;;26.65;5.15;;;;;;;10.49;87.28;100241.38;1745440;81;21242;-73
2021/01/25 05:15:59;;;;;;;21.23;4.90;;;;;;;10.53;87.23;100243.33;1732696;81;21838;-73
2021/01/25 05:18:32;;;;;;;25.52;6.50;;;;;;;10.53;87.01;100239.16;1729546;81;21206;-75
2021/01/25 05:21:05;;;;;;;28.32;5.37;;;;;;;10.54;86.92;100244.18;1683764;82;21254;-74
2021/01/25 05:23:43;;;;;;;18.43;5.57;;;;;;;10.53;86.82;100243.33;1735666;81;21328;-75
2021/01/25 05:26:16;;;;;;;25.45;5.75;;;;;;;10.52;86.63;100245.02;1739458;81;21506;-75
2021/01/25 05:28:49;;;;;;;37.28;7.15;;;;;;;10.45;86.62;100241.08;1741215;81;21321;-77
2021/01/25 05:31:24;;;;;;;18.90;5.62;;;;;;;10.42;86.72;100234.70;1736337;81;21174;-77
2021/01/25 05:33:57;;;;;;;36.30;8.30;;;;;;;10.47;87.17;100233.31;1742550;81;21947;-74
2021/01/25 05:36:31;;;;;;;24.00;7.33;;;;;;;10.45;86.78;100235.53;1734250;81;21821;-73
2021/01/25 05:39:05;;;;;;;24.25;6.90;;;;;;;10.42;86.66;100241.64;1749701;81;21361;-76
2021/01/25 05:41:38;;;;;;;26.77;6.45;;;;;;;10.39;86.49;100240.78;1752582;81;21852;-75
2021/01/25 05:44:17;;;;;;;36.20;8.40;;;;;;;10.37;86.72;100229.66;1725316;81;21331;-78
2021/01/25 05:46:50;;;;;;;39.20;7.33;;;;;;;10.36;86.85;100231.62;1750409;81;22633;-73
2021/01/25 05:49:29;;;;;;;28.70;6.47;;;;;;;10.41;86.89;100234.39;1760947;81;21332;-73
2021/01/25 05:52:02;;;;;;;29.48;7.50;;;;;;;10.39;86.41;100244.13;1751592;81;21889;-75
2021/01/25 05:54:36;;;;;;;30.32;6.12;;;;;;;10.28;86.17;100226.57;1746627;81;21189;-74
2021/01/25 05:57:09;;;;;;;28.00;6.42;;;;;;;10.23;86.23;100229.88;1751828;81;21408;-76
2021/01/25 05:59:45;;;;;;;29.93;7.50;;;;;;;10.18;86.26;100223.77;1736495;81;21840;-76
2021/01/25 06:02:17;;;;;;;33.02;7.20;;;;;;;10.19;86.68;100207.94;1735517;82;21214;-76
2021/01/25 06:04:51;;;;;;;46.73;8.33;;;;;;;10.20;86.78;100205.44;1733481;82;21200;-78
2021/01/25 06:07:23;;;;;;;;;;;;;;;10.24;86.51;100206.58;1736416;82;21191;-78
2021/01/25 06:09:57;;;;;;;23.85;6.37;;;;;;;10.20;86.17;100199.35;1733937;82;20197;-79
2021/01/25 06:12:44;;;;;;;30.90;7.00;;;;;;;10.15;86.06;100199.33;1734721;82;21254;-79
2021/01/25 06:15:23;;;;;;;23.83;6.33;;;;;;;10.15;86.01;100205.45;1733922;82;21211;-80
2021/01/25 06:18:00;;;;;;;29.50;6.75;;;;;;;10.14;85.89;100181.02;1734772;81;21262;-76
2021/01/25 06:20:33;;;;;;;22.90;5.65;;;;;;;10.15;85.82;100186.84;1733882;82;21206;-78
2021/01/25 06:23:06;;;;;;;23.45;5.97;;;;;;;10.19;85.78;100182.44;1736299;81;21201;-81
2021/01/25 06:25:39;;;;;;;28.12;6.50;;;;;;;10.25;85.67;100193.83;1736101;82;21206;-77
2021/01/25 06:28:16;;;;;;;32.85;8.18;;;;;;;10.35;85.48;100199.98;1733464;82;21423;-77
2021/01/25 06:30:49;;;;;;;32.13;7.80;;;;;;;10.60;88.20;100187.58;1734744;82;21249;-77
2021/01/25 06:33:23;;;;;;;24.37;6.63;;;;;;;11.06;89.41;100179.63;1708674;82;21206;-76
2021/01/25 06:35:57;;;;;;;29.52;7.03;;;;;;;11.33;87.25;100192.14;1733339;82;21210;-77
2021/01/25 06:38:32;;;;;;;27.52;7.25;;;;;;;11.54;86.73;100190.16;1708242;82;22094;-76
2021/01/25 06:41:13;;;;;;;20.37;6.55;;;;;;;11.74;85.90;100201.32;1686356;82;21861;-77
2021/01/25 06:43:49;;;;;;;21.70;6.83;;;;;;;11.92;84.54;100187.64;1735121;81;21309;-78
2021/01/25 06:46:22;;;;;;;31.37;7.33;;;;;;;12.07;83.89;100190.39;1733254;82;21237;-76
2021/01/25 06:48:55;;;;;;;28.05;7.80;;;;;;;12.10;80.47;100180.08;1733372;82;21912;-77
2021/01/25 06:51:29;;;;;;;23.52;6.25;;;;;;;12.09;79.78;100185.91;1706942;82;21249;-77
2021/01/25 06:54:03;;;;;;;23.67;6.08;;;;;;;12.13;80.31;100172.56;1733827;82;21333;-77
2021/01/25 06:57:02;;;;;;;26.00;6.22;;;;;;;12.25;80.38;100160.55;1731421;82;21258;-76
2021/01/25 06:59:38;;;;;;;26.73;7.75;;;;;;;12.43;80.58;100177.17;1708661;81;21207;-76
2021/01/25 07:02:11;;;;;;;29.10;7.05;;;;;;;12.69;78.28;100178.16;1734400;81;21198;-76
2021/01/25 07:04:45;;;;;;;26.55;6.45;;;;;;;12.75;77.21;100163.08;1735343;82;21265;-76
2021/01/25 07:07:30;;;;;;;20.10;6.78;;;;;;;12.78;76.64;100181.98;1733693;82;21203;-76
2021/01/25 07:10:05;;;;;;;25.05;6.17;;;;;;;12.70;74.77;100172.85;1733667;81;21213;-77
2021/01/25 07:12:38;;;;;;;27.05;7.03;;;;;;;12.56;75.67;100163.47;1707880;82;21199;-77
2021/01/25 07:15:13;;;;;;;23.35;6.37;;;;;;;12.65;76.16;100168.69;1729772;82;21183;-77
2021/01/25 07:17:45;;;;;;;25.08;6.05;;;;;;;12.72;75.66;100174.78;1734688;82;21399;-76
2021/01/25 07:20:18;;;;;;;23.27;6.00;;;;;;;12.72;74.78;100157.25;1733988;81;21206;-76
2021/01/25 07:22:51;;;;;;;20.17;5.72;;;;;;;12.67;73.99;100149.77;1736216;82;21289;-76
2021/01/25 07:25:26;;;;;;;20.77;6.47;;;;;;;12.61;75.16;100146.73;1734852;81;21246;-77
2021/01/25 07:28:14;;;;;;;24.52;7.17;;;;;;;12.58;73.66;100149.23;1686669;82;21287;-77
2021/01/25 07:30:43;;;;;;;26.80;7.67;;;;;;;12.57;74.98;100148.42;1734650;81;21234;-77
2021/01/25 07:33:18;;;;;;;30.23;7.17;;;;;;;12.54;74.77;100148.98;1733722;82;21197;-77
2021/01/25 07:35:51;;;;;;;24.90;6.78;;;;;;;12.55;74.20;100142.86;1732949;82;21183;-77
2021/01/25 07:38:24;;;;;;;26.35;7.75;;;;;;;12.47;73.73;100144.28;1707355;82;21262;-77
2021/01/25 07:40:58;;;;;;;18.87;6.35;;;;;;;12.28;73.12;100145.23;1731468;82;21388;-77
2021/01/25 07:43:32;;;;;;;20.90;5.70;;;;;;;12.10;74.30;100141.12;1734764;82;21205;-77
2021/01/25 07:46:11;;;;;;;23.67;6.53;;;;;;;12.02;74.37;100137.54;1731961;82;21888;-76
2021/01/25 07:48:51;;;;;;;21.87;6.50;;;;;;;12.03;75.81;100132.25;1734653;82;21405;-78
2021/01/25 07:51:29;;;;;;;22.55;6.50;;;;;;;12.14;75.96;100138.59;1734574;81;21387;-76
2021/01/25 07:54:02;;;;;;;26.87;6.58;;;;;;;12.28;75.88;100142.45;1733893;82;21345;-77
2021/01/25 07:56:36;;;;;;;18.32;7.12;;;;;;;12.30;74.75;100134.06;1734803;82;21753;-77
2021/01/25 07:59:14;;;;;;;;;;;;;;;12.28;74.28;100127.14;1736488;82;21214;-77
2021/01/25 08:01:59;;;;;;;27.22;6.58;;;;;;;12.37;74.66;100117.06;1733242;82;20189;-76
2021/01/25 08:04:35;;;;;;;22.50;6.95;;;;;;;12.48;75.37;100122.28;1733325;82;21848;-77
2021/01/25 08:07:09;;;;;;;25.68;7.22;;;;;;;12.66;74.49;100118.02;1733263;82;21309;-76
2021/01/25 08:09:44;;;;;;;22.22;6.72;;;;;;;12.73;73.84;100128.27;1734711;82;21202;-77
2021/01/25 08:12:21;;;;;;;21.97;6.05;;;;;;;12.72;73.58;100107.92;1733482;82;21365;-78
2021/01/25 08:15:00;;;;;;;26.42;7.05;;;;;;;12.81;74.46;100107.59;1734682;82;21187;-78
2021/01/25 08:17:43;;;;;;;23.90;7.00;;;;;;;12.99;73.38;100094.40;1733061;82;21209;-77
2021/01/25 08:20:22;;;;;;;26.30;7.05;;;;;;;13.06;72.68;100106.59;1732181;82;21364;-77
2021/01/25 08:23:06;;;;;;;29.40;7.97;;;;;;;13.05;72.77;100107.72;1726588;82;21218;-77
2021/01/25 08:25:39;;;;;;;25.15;7.80;;;;;;;13.00;72.44;100111.93;1732527;82;21337;-77
2021/01/25 08:28:18;;;;;;;27.10;7.80;;;;;;;13.01;72.42;100102.47;1725185;82;21384;-77
2021/01/25 08:30:51;;;;;;;32.48;9.33;;;;;;;13.10;72.18;100100.71;1707295;82;21392;-77
2021/01/25 08:33:36;;;;;;;24.50;8.23;;;;;;;13.16;72.25;100104.57;1735789;81;21183;-77
2021/01/25 08:36:13;;;;;;;22.52;7.20;;;;;;;13.23;72.35;100115.37;1729669;82;21209;-77
2021/01/25 08:38:50;;;;;;;26.73;7.37;;;;;;;13.34;72.41;100105.80;1731345;81;21885;-78
2021/01/25 08:41:32;;;;;;;27.90;7.37;;;;;;;13.41;71.99;100102.09;1733083;82;21257;-76
2021/01/25 08:44:13;;;;;;;23.30;6.83;;;;;;;13.39;71.99;100094.59;1733805;82;21440;-77
2021/01/25 08:46:46;;;;;;;25.90;7.42;;;;;;;13.41;71.54;100107.12;1733383;81;21328;-77
2021/01/25 08:49:35;;;;;;;25.60;6.90;;;;;;;13.31;71.45;100093.27;1736241;82;21249;-76
2021/01/25 08:52:28;;;;;;;31.85;8.43;;;;;;;13.28;71.77;100083.27;1731725;82;21337;-77
2021/01/25 08:55:38;;;;;;;27.15;7.28;;;;;;;13.30;71.12;100079.06;1733691;82;21285;-78
2021/01/25 08:58:30;;;;;;;25.15;7.58;;;;;;;13.24;72.28;100079.39;1715683;82;21309;-78
2021/01/25 09:01:14;;;;;;;32.67;8.83;;;;;;;13.23;71.73;100067.42;1732789;82;21431;-78
2021/01/25 09:03:47;;;;;;;25.80;6.80;;;;;;;13.07;72.33;100082.61;1731369;82;21292;-76
2021/01/25 09:06:20;;;;;;;24.90;7.30;;;;;;;13.00;73.00;100081.28;1735379;82;21675;-76
2021/01/25 09:08:55;;;;;;;24.27;6.35;;;;;;;12.98;73.07;100070.45;1734885;82;21187;-77
2021/01/25 09:11:27;;;;;;;30.88;6.65;;;;;;;13.04;73.42;100067.04;1734722;82;21203;-76
2021/01/25 09:14:00;;;;;;;24.63;6.83;;;;;;;13.17;73.65;100059.39;1735190;82;21400;-77
2021/01/25 09:16:34;;;;;;;25.40;7.10;;;;;;;13.35;73.21;100060.05;1731138;81;21337;-76
2021/01/25 09:19:08;;;;;;;29.40;8.70;;;;;;;13.45;72.58;100053.80;1734701;81;21832;-78
2021/01/25 09:21:41;;;;;;;23.92;6.97;;;;;;;13.40;71.85;100051.09;1733913;82;21911;-77
2021/01/25 09:24:13;;;;;;;33.10;7.90;;;;;;;13.31;71.80;100042.23;1733655;82;21337;-77
2021/01/25 09:26:46;;;;;;;21.15;6.50;;;;;;;13.27;72.37;100035.03;1732534;82;21215;-77
2021/01/25 09:29:19;;;;;;;25.60;6.65;;;;;;;13.34;72.25;100059.23;1733944;82;21233;-77
2021/01/25 09:31:52;;;;;;;31.13;6.93;;;;;;;13.40;72.15;100046.91;1734047;82;21816;-77
2021/01/25 09:34:26;;;;;;;25.88;6.85;;;;;;;13.35;72.23;100019.62;1733870;82;21265;-77
2021/01/25 09:36:59;;;;;;;33.40;8.13;;;;;;;13.32;72.49;100025.80;1733710;82;21206;-77
2021/01/25 09:39:32;;;;;;;25.85;5.72;;;;;;;13.44;72.67;100025.64;1734902;82;21812;-77
2021/01/25 09:42:08;;;;;;;28.50;7.87;;;;;;;13.51;71.44;100013.57;1736042;82;21254;-77
2021/01/25 09:44:41;;;;;;;31.93;8.05;;;;;;;13.47;71.20;100018.09;1733085;82;21202;-77
2021/01/25 09:47:18;;;;;;;21.50;7.80;;;;;;;13.43;71.08;100013.39;1732828;82;21683;-78
2021/01/25 09:49:52;;;;;;;22.62;7.17;;;;;;;13.35;71.64;100020.47;1735114;82;21167;-78
2021/01/25 09:52:27;;;;;;;20.92;7.05;;;;;;;13.32;71.32;100000.70;1734693;81;21234;-78
2021/01/25 09:55:07;;;;;;;28.42;8.18;;;;;;;13.14;72.02;100012.61;1734755;82;21187;-79
2021/01/25 09:57:46;;;;;;;29.98;7.35;;;;;;;13.05;72.63;100002.66;1734637;82;21246;-78
2021/01/25 10:00:25;;;;;;;26.52;7.72;;;;;;;12.99;72.85;99993.23;1735990;82;21697;-79
2021/01/25 10:02:57;;;;;;;25.50;6.92;;;;;;;12.93;73.15;99990.19;1735652;82;21724;-78
2021/01/25 10:05:36;;;;;;;30.10;7.30;;;;;;;12.97;73.72;99986.55;1733587;82;21261;-78
2021/01/25 10:08:15;;;;;;;;;;;;;;;13.09;73.58;99980.02;1730745;82;21733;-77
2021/01/25 10:10:48;;;;;;;19.20;6.35;;;;;;;13.14;73.14;99977.19;1733195;82;20265;-78
2021/01/25 10:13:23;;;;;;;23.47;6.62;;;;;;;13.04;73.08;99976.47;1732470;82;21253;-78
2021/01/25 10:15:59;;;;;;;27.95;6.60;;;;;;;13.02;73.58;99943.31;1733361;82;21207;-78
2021/01/25 10:18:36;;;;;;;23.65;6.47;;;;;;;13.12;73.19;99954.36;1732837;82;21332;-77
2021/01/25 10:21:10;;;;;;;22.35;5.72;;;;;;;13.19;72.88;99957.63;1733736;82;21895;-78
2021/01/25 10:23:44;;;;;;;28.38;5.97;;;;;;;13.22;72.58;99945.05;1732857;81;21710;-77
2021/01/25 10:26:20;;;;;;;24.23;6.72;;;;;;;13.27;72.93;99951.39;1734125;82;21254;-78
2021/01/25 10:28:53;;;;;;;28.83;5.97;;;;;;;13.41;72.35;99935.62;1733722;82;21336;-77
2021/01/25 10:31:26;;;;;;;19.70;6.10;;;;;;;13.55;71.69;99954.69;1733845;82;21207;-79
2021/01/25 10:33:59;;;;;;;31.00;5.70;;;;;;;13.39;70.63;99928.10;1735180;81;21760;-76
2021/01/25 10:36:32;;;;;;;20.77;6.03;;;;;;;13.07;71.32;99920.16;1734200;82;21257;-79
2021/01/25 10:39:05;;;;;;;30.03;5.97;;;;;;;12.78;72.07;99924.89;1735275;82;21294;-80
2021/01/25 10:41:37;;;;;;;28.40;5.83;;;;;;;12.44;73.12;99923.53;1735095;82;21206;-79
2021/01/25 10:44:15;;;;;;;23.80;4.47;;;;;;;12.13;74.38;99913.77;1731881;82;21262;-79
2021/01/25 10:46:47;;;;;;;19.60;4.33;;;;;;;11.91;75.62;99925.88;1733781;82;21761;-78
2021/01/25 10:49:20;;;;;;;25.30;5.78;;;;;;;11.95;77.96;99910.84;1736155;82;21274;-78
2021/01/25 10:51:53;;;;;;;25.27;5.10;;;;;;;12.22;77.46;99885.58;1735054;82;21210;-78
2021/01/25 10:54:26;;;;;;;24.93;5.13;;;;;;;12.45;77.00;99911.27;1734996;82;21702;-78
2021/01/25 10:56:59;;;;;;;24.85;5.55;;;;;;;12.69;76.18;99889.03;1734380;82;21203;-78
2021/01/25 10:59:32;;;;;;;21.87;5.08;;;;;;;12.79;75.34;99883.37;1734891;82;21318;-78
2021/01/25 11:02:05;;;;;;;20.27;5.30;;;;;;;12.84;75.26;99883.32;1731243;82;21317;-78
2021/01/25 11:04:38;;;;;;;21.90;4.47;;;;;;;12.91;75.12;99887.39;1733340;82;21321;-78
2021/01/25 11:07:11;;;;;;;20.70;5.80;;;;;;;12.97;74.98;99876.48;1732582;82;21855;-78
2021/01/25 11:09:43;;;;;;;22.77;5.03;;;;;;;12.98;74.68;99869.81;1736055;82;21199;-79
2021/01/25 11:12:17;;;;;;;18.50;5.28;;;;;;;12.96;74.99;99874.83;1734712;82;21836;-77
2021/01/25 11:14:49;;;;;;;25.25;5.10;;;;;;;13.05;75.06;99871.67;1738420;82;21339;-78
2021/01/25 11:17:26;;;;;;;29.87;5.60;;;;;;;13.15;74.61;99874.31;1738023;82;21403;-84
2021/01/25 11:19:57;;;;;;;18.70;5.25;;;;;;;13.06;74.39;99873.33;1738656;82;21839;-85
2021/01/25 11:22:29;;;;;;;16.60;5.33;;;;;;;12.92;74.92;99863.16;1737936;82;21388;-83
2021/01/25 11:25:03;;;;;;;24.18;5.40;;;;;;;12.95;75.23;99869.55;1737768;82;21214;-82
2021/01/25 11:27:37;;;;;;;21.95;6.30;;;;;;;12.96;75.32;99869.26;1738062;82;21209;-84
2021/01/25 11:30:12;;;;;;;25.27;5.60;;;;;;;12.89;74.57;99879.09;1739429;82;21254;-84
2021/01/25 11:32:45;;;;;;;27.75;5.67;;;;;;;12.62;74.97;99864.87;1738366;81;21404;-83
2021/01/25 11:35:20;;;;;;;22.58;5.67;;;;;;;12.29;75.91;99852.67;1735640;82;21325;-83
2021/01/25 11:37:53;;;;;;;20.95;4.80;;;;;;;12.04;77.14;99852.08;1739359;82;21387;-84
2021/01/25 11:40:26;;;;;;;28.80;6.10;;;;;;;11.87;78.10;99860.00;1736961;81;21206;-83
2021/01/25 11:42:59;;;;;;;31.37;5.75;;;;;;;11.73;78.90;99836.17;1739780;82;21962;-83
2021/01/25 11:45:32;;;;;;;18.85;4.62;;;;;;;11.61;79.71;99846.02;1735353;81;21254;-83
2021/01/25 11:48:07;;;;;;;26.93;5.28;;;;;;;11.48;80.48;99848.83;1736639;82;21860;-83
2021/01/25 11:50:40;;;;;;;22.35;5.50;;;;;;;11.34;81.36;99849.75;1738115;82;21210;-82
2021/01/25 11:53:15;;;;;;;23.30;5.80;;;;;;;11.21;82.29;99834.55;1739569;82;21387;-75
2021/01/25 11:55:47;;;;;;;27.40;5.72;;;;;;;11.14;83.00;99832.61;1736608;81;21317;-82
2021/01/25 11:58:23;;;;;;;25.32;5.78;;;;;;;11.09;83.78;99834.05;1739574;82;21368;-82